createdAt,value
2022-12-12T00:07:20.261Z,-0.95
2022-12-12T00:17:21.476Z,-0.90
2022-12-12T00:27:22.699Z,-0.99
2022-12-12T00:37:23.939Z,-1.00
2022-12-12T00:47:25.166Z,-1.06
2022-12-12T00:57:26.550Z,-1.25
2022-12-12T01:07:28.647Z,-1.37
2022-12-12T01:17:29.964Z,-1.50
2022-12-12T01:27:31.264Z,-1.62
2022-12-12T01:37:32.532Z,-1.65
2022-12-12T01:47:33.977Z,-1.80
2022-12-12T01:57:35.258Z,-1.99
2022-12-12T02:07:36.523Z,-2.20
2022-12-12T02:17:37.799Z,-2.25
2022-12-12T02:27:39.024Z,-2.23
2022-12-12T02:37:40.337Z,-2.26
2022-12-12T02:47:41.630Z,-2.33
2022-12-12T02:57:42.937Z,-2.42
2022-12-12T03:07:47.165Z,-2.60
2022-12-12T03:17:48.482Z,-2.63
2022-12-12T03:27:49.751Z,-2.72
2022-12-12T03:37:50.965Z,-2.79
2022-12-12T03:47:52.256Z,-2.82
2022-12-12T03:57:53.488Z,-2.96
2022-12-12T04:07:54.807Z,-3.07
2022-12-12T04:17:56.096Z,-3.15
2022-12-12T04:27:57.374Z,-3.23
2022-12-12T04:37:58.600Z,-3.29
2022-12-12T04:48:00.004Z,-3.38
2022-12-12T04:58:01.243Z,-3.37
2022-12-12T05:08:02.542Z,-3.27
2022-12-12T05:18:03.794Z,-3.39
2022-12-12T05:28:05.057Z,-3.46
2022-12-12T05:38:06.287Z,-3.53
2022-12-12T05:48:07.550Z,-3.25
2022-12-12T05:58:09.100Z,-3.07
2022-12-12T06:08:10.503Z,-2.90
2022-12-12T06:18:12.276Z,-2.86
2022-12-12T06:28:13.541Z,-2.80
2022-12-12T06:38:14.968Z,-2.90
2022-12-12T06:48:16.311Z,-3.01
2022-12-12T06:58:17.543Z,-3.05
2022-12-12T07:08:18.853Z,-3.00
2022-12-12T07:18:20.184Z,-2.89
2022-12-12T07:28:21.459Z,-2.86
2022-12-12T07:38:22.742Z,-2.79
2022-12-12T07:48:24.163Z,-2.74
2022-12-12T07:58:25.429Z,-2.76
2022-12-12T08:08:26.753Z,-2.57
2022-12-12T08:18:28.050Z,-2.48
2022-12-12T08:28:29.352Z,-2.28
2022-12-12T08:38:30.616Z,-2.17
2022-12-12T08:48:32.060Z,-2.04
2022-12-12T08:58:33.440Z,-1.96
2022-12-12T09:08:34.750Z,-1.76
2022-12-12T09:18:36.034Z,-1.60
2022-12-12T09:28:37.327Z,-1.38
2022-12-12T09:38:38.619Z,-1.22
2022-12-12T09:48:39.935Z,-1.00
2022-12-12T09:58:47.299Z,-0.79
2022-12-12T10:08:50.396Z,-0.86
2022-12-12T10:18:51.678Z,-0.89
2022-12-12T10:28:53.090Z,-1.01
2022-12-12T10:38:54.351Z,-1.09
2022-12-12T10:48:55.687Z,-1.08
2022-12-12T10:58:57.001Z,-0.81
2022-12-12T11:08:58.318Z,-0.80
2022-12-12T11:18:59.658Z,-0.58
2022-12-12T11:29:02.086Z,-0.83
2022-12-12T11:39:03.463Z,-0.91
2022-12-12T11:49:04.769Z,-0.92
2022-12-12T11:59:06.063Z,-1.00
2022-12-12T12:09:07.360Z,-1.23
2022-12-12T12:19:08.718Z,-1.22
2022-12-12T12:29:09.995Z,-1.26
2022-12-12T12:39:11.323Z,-1.36
2022-12-12T12:49:12.571Z,-1.35
2022-12-12T12:59:13.861Z,-1.40
2022-12-12T13:09:15.165Z,-1.42
2022-12-12T13:19:16.469Z,-1.28
2022-12-12T13:29:17.758Z,-1.11
2022-12-12T13:39:19.046Z,-1.15
2022-12-12T13:49:20.294Z,-0.88
2022-12-12T13:59:21.566Z,-1.06
2022-12-12T14:09:31.187Z,-1.10
2022-12-12T14:19:42.634Z,-1.14
2022-12-12T14:29:43.981Z,-1.30
2022-12-12T14:39:45.327Z,-1.41
2022-12-12T14:49:46.636Z,-1.30
2022-12-12T14:59:47.902Z,-1.35
2022-12-12T15:09:49.140Z,-1.52
2022-12-12T15:19:50.523Z,-1.79
2022-12-12T15:29:51.753Z,-2.03
2022-12-12T15:39:53.012Z,-2.29
2022-12-12T15:49:54.308Z,-2.56
2022-12-12T15:59:55.636Z,-2.63
2022-12-12T16:09:56.919Z,-2.74
2022-12-12T16:19:58.195Z,-2.97
2022-12-12T16:29:59.440Z,-3.17
2022-12-12T16:40:01.894Z,-3.17
2022-12-12T16:50:03.161Z,-3.33
2022-12-12T17:00:04.414Z,-3.48
2022-12-12T17:10:05.689Z,-3.60
2022-12-12T17:20:06.977Z,-3.68
2022-12-12T17:30:08.353Z,-3.80
2022-12-12T17:40:11.176Z,-3.85
2022-12-12T17:50:12.958Z,-3.89
2022-12-12T18:00:14.726Z,-3.94
2022-12-12T18:10:16.564Z,-3.79
2022-12-12T18:20:17.929Z,-3.92
2022-12-12T18:30:19.216Z,-3.96
2022-12-12T18:40:20.525Z,-4.06
2022-12-12T18:50:21.778Z,-4.21
2022-12-12T19:00:23.045Z,-4.32
2022-12-12T19:10:24.362Z,-4.26
2022-12-12T19:20:25.672Z,-4.23
2022-12-12T19:30:29.212Z,-4.17
2022-12-12T19:40:30.570Z,-4.15
2022-12-12T19:50:31.819Z,-4.27
2022-12-12T20:00:33.089Z,-4.27
2022-12-12T20:10:34.365Z,-4.11
2022-12-12T20:20:35.617Z,-4.06
2022-12-12T20:30:37.007Z,-4.17
2022-12-12T20:40:39.478Z,-4.23
2022-12-12T20:50:41.634Z,-4.26
2022-12-12T21:00:42.897Z,-4.27
2022-12-12T21:10:44.240Z,-4.39
2022-12-12T21:20:45.587Z,-4.35
2022-12-12T21:30:46.897Z,-4.34
2022-12-12T21:40:48.221Z,-4.27
2022-12-12T21:50:49.451Z,-4.25
2022-12-12T22:00:50.756Z,-4.29
2022-12-12T22:10:54.512Z,-4.45
2022-12-12T22:20:56.098Z,-4.45
2022-12-12T22:30:57.363Z,-4.47
2022-12-12T22:40:58.697Z,-4.54
2022-12-12T22:50:59.955Z,-4.53
2022-12-12T23:01:01.238Z,-4.62
2022-12-12T23:11:02.499Z,-4.64
2022-12-12T23:21:03.763Z,-4.77
2022-12-12T23:31:05.152Z,-4.83
2022-12-12T23:41:06.530Z,-4.78
2022-12-12T23:51:07.793Z,-4.75
